メインページ
METAR-TAF:

METAR-TAF

空港 :

ソルトレイクシティ, ユタ州, アメリカ合衆国

ソルトレイクシティ国際空港

緯度: 40-46-41N, 経度: 111-58-10W, 海抜: 1288m

現時点の気象観測

当レポートは12分前の11:54(UTC)に作成
南/南東の風 7kt
気温 2°C
湿度 93%
気圧 1022 hPa
視程: 16.1km
高度12000ftの雲はほとんどない

METAR: KSLC 241154Z 15007KT 10SM FEW120 02/01 A3018 RMK AO2 SLP221 70098 T00220006 10028 20011 51005

時間: 06:06 (12:06 UTC)

予報

当レポートは46分前の11:20(UTC)に作成
予報は24日の 12時(UTC)から 25日の 18時(UTC)まで有効
南/南東の風 7kt
視程: 10km
高度8000ftの雲は散在している
高度12000ftの雲は散在している
25日の 0300時(UTC)から
南/南東の風 10kt
視程: 10km
高度8000ftの雲は散在している
高度12000ftの千切れ雲あり
25日の 0600時(UTC)から
南/南東の風 8kt
視程: 10km
高度6000ftの雲は散在している
高度10000ftの千切れ雲あり
25日の 1000時(UTC)から
南/南東の風 8kt
視程: 10km
高度3000ftの雲は散在している
高度6000ftの千切れ雲あり
近辺でにわか雨
25日の 1400時(UTC)から
南/南東の風 7kt
視程: 10km
高度2000ftの雲は散在している
高度4000ftの千切れ雲あり
小雨

TAF: KSLC 241120Z 2412/2518 15007KT P6SM SCT080 SCT120 FM250300 16010KT P6SM SCT080 BKN120 FM250600 16008KT P6SM SCT060 BKN100 FM251000 16008KT P6SM VCSH SCT030 BKN060 FM251400 16007KT P6SM -RA SCT020 BKN040

4,000以上の空港の気象観測と天気予報(METAR報とTAF報)

利用可能な観測所は地図上に黄色い丸と赤い丸で示す。

丸の上にカーソルを重ねると観測所名を参照できる。

次にクリックすると気象観測と天気予報を参照できる。

マップの切り替え:黒色「×」印の緑ボタンをクリックして拡大、「-」印の緑ボタンをクリックして縮小、緑色の三角印をクリックして隣りの地図に切り替え


METAR-TAF: